Time;durP1;ratioP1;P1;durP2;ratioP2;P2;SDS_P1;SDS_P2;PMS_P1;PMS_P2;Temp;Humidity;BMP_temperature;BMP_pressure;BME280_temperature;BME280_humidity;BME280_pressure;Samples;Min_cycle;Max_cycle;Signal;HPM_P1;HPM_P2
2022/06/01 00:01:34;;;;;;;4.47;3.65;;;9.10;99.90;;;;;;4987695;28;20054;-63
2022/06/01 00:04:00;;;;;;;4.80;3.50;;;9.10;99.90;;;;;;5020711;28;20050;-70
2022/06/01 00:06:26;;;;;;;4.70;4.22;;;9.10;99.90;;;;;;4987858;28;20038;-60
2022/06/01 00:08:52;;;;;;;5.55;4.35;;;9.20;99.90;;;;;;4988521;28;20066;-70
2022/06/01 00:11:19;;;;;;;4.22;3.85;;;9.20;99.90;;;;;;5004373;28;20085;-71
2022/06/01 00:13:45;;;;;;;5.50;4.00;;;9.20;99.90;;;;;;5020220;28;20156;-63
2022/06/01 00:16:11;;;;;;;5.70;3.90;;;9.30;99.90;;;;;;4988368;28;20038;-62
2022/06/01 00:18:38;;;;;;;5.18;4.50;;;9.30;99.90;;;;;;4987780;28;20030;-60
2022/06/01 00:21:07;;;;;;;6.80;4.70;;;9.30;99.90;;;;;;5004074;28;20567;-68
2022/06/01 00:23:32;;;;;;;5.73;5.10;;;9.30;99.90;;;;;;5020724;28;20467;-65
2022/06/01 00:25:58;;;;;;;5.05;4.65;;;9.40;99.90;;;;;;5020211;28;20519;-63
2022/06/01 00:28:25;;;;;;;6.00;4.88;;;9.40;99.90;;;;;;4987751;28;20460;-67
2022/06/01 00:30:50;;;;;;;9.20;5.25;;;9.40;99.90;;;;;;4988207;28;20424;-72
2022/06/01 00:33:16;;;;;;;7.15;5.80;;;9.50;99.90;;;;;;4990443;28;20046;-61
2022/06/01 00:35:42;;;;;;;6.43;5.00;;;9.40;99.90;;;;;;4986587;28;20061;-61
2022/06/01 00:38:09;;;;;;;6.07;5.28;;;9.50;99.90;;;;;;5003908;28;20370;-71
2022/06/01 00:40:34;;;;;;;9.15;4.75;;;9.50;99.90;;;;;;4988041;28;20085;-63
2022/06/01 00:43:15;;;;;;;4.82;4.43;;;9.60;99.90;;;;;;5003204;28;20054;-62
2022/06/01 00:45:41;;;;;;;8.57;6.10;;;9.60;99.90;;;;;;5020400;28;20425;-65
2022/06/01 00:48:07;;;;;;;5.63;5.13;;;9.60;99.90;;;;;;4986521;28;20093;-64
2022/06/01 00:50:39;;;;;;;6.45;5.82;;;9.60;99.90;;;;;;5020099;28;20073;-67
2022/06/01 00:53:15;;;;;;;8.60;6.10;;;9.60;99.90;;;;;;5002750;28;20050;-67
2022/06/01 00:55:47;;;;;;;5.38;4.90;;;9.70;99.90;;;;;;4987096;28;20053;-62
2022/06/01 00:58:24;;;;;;;5.38;4.47;;;9.70;99.90;;;;;;4987820;28;20393;-65
2022/06/01 01:00:52;;;;;;;6.07;5.57;;;9.70;99.90;;;;;;4987394;28;20117;-64
2022/06/01 01:03:21;;;;;;;7.72;5.85;;;9.80;99.90;;;;;;4988654;28;20093;-62
2022/06/01 01:05:55;;;;;;;8.55;7.03;;;9.80;99.90;;;;;;4986206;28;20096;-59
2022/06/01 01:08:20;;;;;;;9.93;6.82;;;9.90;99.90;;;;;;4987394;28;20049;-66
2022/06/01 01:10:46;;;;;;;7.68;6.50;;;9.90;99.90;;;;;;4987483;28;20046;-64
2022/06/01 01:13:14;;;;;;;6.60;5.95;;;10.00;99.90;;;;;;5002732;28;20093;-70
2022/06/01 01:15:55;;;;;;;5.93;5.38;;;10.00;99.90;;;;;;4988053;28;20073;-63
2022/06/01 01:18:29;;;;;;;6.35;5.68;;;10.00;99.90;;;;;;5018752;28;20057;-64
2022/06/01 01:21:29;;;;;;;7.50;5.80;;;10.00;99.90;;;;;;5019807;28;20507;-64
2022/06/01 01:24:27;;;;;;;7.70;6.95;;;10.00;99.90;;;;;;5011805;28;20055;-63
2022/06/01 01:26:56;;;;;;;7.90;6.95;;;10.00;99.90;;;;;;4952903;28;20497;-62
2022/06/01 01:29:43;;;;;;;8.90;7.30;;;10.00;99.90;;;;;;4987336;28;20081;-63
2022/06/01 01:32:11;;;;;;;7.28;6.47;;;10.10;99.90;;;;;;4989282;28;20101;-63
2022/06/01 01:34:39;;;;;;;8.82;7.40;;;10.10;99.90;;;;;;4989073;28;20104;-66
2022/06/01 01:37:10;;;;;;;7.85;7.05;;;10.10;99.90;;;;;;4986922;28;20488;-60
2022/06/01 01:39:37;;;;;;;8.32;7.55;;;10.10;99.90;;;;;;5017829;28;20050;-69
2022/06/01 01:42:06;;;;;;;8.70;7.78;;;10.20;99.90;;;;;;5003119;28;20392;-67
2022/06/01 01:44:57;;;;;;;8.25;7.00;;;10.20;99.90;;;;;;4985449;28;20213;-68
2022/06/01 01:47:23;;;;;;;9.43;7.47;;;10.20;99.90;;;;;;5019788;28;20061;-64
2022/06/01 01:49:49;;;;;;;10.35;7.53;;;10.20;99.90;;;;;;4986752;28;20437;-61
2022/06/01 01:52:18;;;;;;;10.35;7.65;;;10.20;99.90;;;;;;4985962;28;20054;-62
2022/06/01 01:55:39;;;;;;;9.23;7.63;;;10.20;99.90;;;;;;4986331;28;20054;-69
2022/06/01 01:58:10;;;;;;;16.73;7.68;;;10.20;99.90;;;;;;4929845;29;20111;-63
2022/06/01 02:00:44;;;;;;;9.10;7.55;;;10.30;99.90;;;;;;4929817;29;20410;-66
2022/06/01 02:03:20;;;;;;;8.02;6.78;;;10.30;99.90;;;;;;4988855;28;20055;-60
2022/06/01 02:06:04;;;;;;;9.30;7.25;;;10.30;99.90;;;;;;4972343;28;20500;-66
2022/06/01 02:08:58;;;;;;;9.93;7.18;;;10.30;99.90;;;;;;4987552;28;20038;-72
2022/06/01 02:14:46;;;;;;;9.02;7.70;;;10.30;99.90;;;;;;4984420;28;20134;-67
2022/06/01 02:17:32;;;;;;;11.68;7.68;;;10.30;99.90;;;;;;5019266;28;20066;-68
2022/06/01 02:20:00;;;;;;;12.25;7.53;;;10.30;99.90;;;;;;4974118;28;20062;-61
2022/06/01 02:22:26;;;;;;;10.80;7.75;;;10.30;99.90;;;;;;5017928;28;20549;-65
2022/06/01 02:24:52;;;;;;;12.65;8.38;;;10.30;99.90;;;;;;4985716;28;20054;-71
2022/06/01 02:27:19;;;;;;;9.38;8.07;;;10.30;99.90;;;;;;5017922;28;20133;-68
2022/06/01 02:29:52;;;;;;;8.88;7.93;;;10.30;99.90;;;;;;5018612;28;20042;-62
2022/06/01 02:32:20;;;;;;;10.93;8.68;;;10.30;99.90;;;;;;4986185;28;20125;-61
2022/06/01 02:34:47;;;;;;;11.75;8.63;;;10.30;99.90;;;;;;4986589;28;20112;-61
2022/06/01 02:37:15;;;;;;;10.75;7.60;;;10.30;99.90;;;;;;4968478;28;20080;-61
2022/06/01 02:39:45;;;;;;;8.98;7.20;;;10.30;99.90;;;;;;5017791;28;20145;-68
2022/06/01 02:42:25;;;;;;;8.50;7.32;;;10.30;99.90;;;;;;5018845;28;20117;-65
2022/06/01 02:44:54;;;;;;;;;;;10.20;99.90;;;;;;4986041;28;20077;-64
2022/06/01 02:47:19;;;;;;;11.52;7.47;;;10.20;99.90;;;;;;4986022;28;19927;-68
2022/06/01 02:49:45;;;;;;;8.57;7.57;;;10.20;99.90;;;;;;4984248;28;20177;-62
2022/06/01 02:52:11;;;;;;;11.13;8.35;;;10.10;99.90;;;;;;4988734;28;20045;-63
2022/06/01 02:54:36;;;;;;;9.73;8.82;;;10.10;99.90;;;;;;4991453;28;20054;-61
2022/06/01 02:57:03;;;;;;;10.85;9.70;;;10.10;99.90;;;;;;4985575;28;20046;-68
2022/06/01 02:59:32;;;;;;;12.52;10.45;;;10.20;99.90;;;;;;4987522;28;20140;-67
2022/06/01 03:01:59;;;;;;;12.98;9.07;;;10.10;99.90;;;;;;4989776;28;20054;-64
2022/06/01 03:04:26;;;;;;;12.32;8.52;;;10.20;99.90;;;;;;4987262;28;20054;-64
2022/06/01 03:06:53;;;;;;;15.52;10.80;;;10.20;99.90;;;;;;5016814;28;20583;-64
2022/06/01 03:09:19;;;;;;;13.85;11.60;;;10.10;99.90;;;;;;5018643;28;20092;-64
2022/06/01 03:11:44;;;;;;;14.30;10.45;;;10.10;99.90;;;;;;4984431;28;20125;-65
2022/06/01 03:14:10;;;;;;;14.93;10.43;;;10.10;99.90;;;;;;5017718;28;20081;-61
2022/06/01 03:16:37;;;;;;;16.13;10.77;;;10.10;99.90;;;;;;5017955;28;20073;-68
2022/06/01 03:19:03;;;;;;;11.60;10.30;;;10.20;99.90;;;;;;5017123;28;20519;-66
2022/06/01 03:21:30;;;;;;;15.27;11.23;;;10.20;99.90;;;;;;4987952;28;20496;-61
2022/06/01 03:23:55;;;;;;;19.33;11.57;;;10.30;99.90;;;;;;4988062;28;20129;-68
2022/06/01 03:26:22;;;;;;;15.18;11.98;;;10.20;99.90;;;;;;5000700;28;20481;-62
2022/06/01 03:28:48;;;;;;;16.23;11.65;;;10.30;99.90;;;;;;5016880;28;20101;-66
2022/06/01 03:31:14;;;;;;;16.48;12.63;;;10.30;99.90;;;;;;4970196;28;20042;-64
2022/06/01 03:33:40;;;;;;;13.73;12.23;;;10.40;99.90;;;;;;4969462;28;20460;-63
2022/06/01 03:36:06;;;;;;;13.48;12.07;;;10.50;99.90;;;;;;5016660;28;20058;-64
2022/06/01 03:38:33;;;;;;;14.98;11.85;;;10.60;99.90;;;;;;4985001;28;20133;-66
2022/06/01 03:40:58;;;;;;;12.77;11.13;;;10.60;99.90;;;;;;4982955;28;20470;-70
2022/06/01 03:43:25;;;;;;;16.67;10.68;;;10.70;99.90;;;;;;4985530;28;20073;-72
2022/06/01 03:45:56;;;;;;;14.05;11.70;;;10.60;99.90;;;;;;4982694;28;20043;-67
2022/06/01 03:48:30;;;;;;;13.35;10.68;;;10.70;99.90;;;;;;4971315;28;20651;-63
2022/06/01 03:50:57;;;;;;;15.00;12.18;;;10.60;99.90;;;;;;4988314;28;20065;-68
2022/06/01 03:53:24;;;;;;;12.63;11.25;;;10.60;99.90;;;;;;5019679;28;20042;-66
2022/06/01 03:55:52;;;;;;;13.38;11.07;;;10.60;99.90;;;;;;4988805;28;20042;-68
2022/06/01 03:58:22;;;;;;;12.38;11.10;;;10.60;99.90;;;;;;5019442;28;20054;-70
2022/06/01 04:00:55;;;;;;;12.85;10.73;;;10.60;99.90;;;;;;4989116;28;20061;-68
2022/06/01 04:03:20;;;;;;;14.23;10.65;;;10.60;99.90;;;;;;4992266;28;20042;-71
2022/06/01 04:05:46;;;;;;;13.65;10.60;;;10.60;99.90;;;;;;4986902;28;20077;-64
2022/06/01 04:08:20;;;;;;;12.50;11.23;;;10.50;99.90;;;;;;4988413;28;20104;-63
2022/06/01 04:10:46;;;;;;;12.85;10.52;;;10.50;99.90;;;;;;4986150;28;20065;-72
2022/06/01 04:13:13;;;;;;;12.85;10.65;;;10.50;99.90;;;;;;5003768;28;20054;-71
2022/06/01 04:15:39;;;;;;;11.43;10.00;;;10.50;99.90;;;;;;5002365;28;20046;-66
2022/06/01 04:18:05;;;;;;;11.27;10.13;;;10.50;99.90;;;;;;4970800;28;20461;-63
2022/06/01 04:20:31;;;;;;;12.85;11.45;;;10.50;99.90;;;;;;5018892;28;20406;-64
2022/06/01 04:23:00;;;;;;;13.60;10.90;;;10.50;99.90;;;;;;4987968;28;20041;-63
2022/06/01 04:25:28;;;;;;;13.80;10.65;;;10.50;99.90;;;;;;5019230;28;20448;-68
2022/06/01 04:27:54;;;;;;;14.80;10.10;;;10.50;99.90;;;;;;5019100;28;20054;-63
2022/06/01 04:30:20;;;;;;;13.27;10.13;;;10.50;99.90;;;;;;5019785;28;20057;-70
2022/06/01 04:32:49;;;;;;;10.65;9.63;;;10.50;99.90;;;;;;4986001;28;20416;-67
2022/06/01 04:35:16;;;;;;;15.63;9.18;;;10.50;99.90;;;;;;4957498;28;1119096;-69
2022/06/01 04:37:42;;;;;;;12.50;10.10;;;10.50;99.90;;;;;;4987002;28;20207;-65
2022/06/01 04:40:10;;;;;;;11.02;9.55;;;10.60;99.90;;;;;;4987416;28;20329;-68
2022/06/01 04:42:36;;;;;;;11.32;9.55;;;10.60;99.90;;;;;;5020187;28;20178;-71
2022/06/01 04:45:03;;;;;;;12.85;9.50;;;10.60;99.90;;;;;;5019891;28;20527;-66
2022/06/01 04:47:28;;;;;;;10.35;9.15;;;10.70;99.90;;;;;;4987521;28;20042;-65
2022/06/01 04:49:54;;;;;;;9.85;8.93;;;10.70;99.90;;;;;;4986327;28;20073;-64
2022/06/01 04:52:20;;;;;;;12.05;9.52;;;10.70;99.90;;;;;;4993718;28;20041;-70
2022/06/01 04:54:45;;;;;;;10.55;9.50;;;10.70;99.90;;;;;;4976579;28;20393;-67
2022/06/01 04:57:11;;;;;;;10.13;9.23;;;10.70;99.90;;;;;;4984599;28;20054;-63
2022/06/01 04:59:37;;;;;;;13.07;9.50;;;10.70;99.90;;;;;;4985608;28;20500;-66
2022/06/01 05:02:03;;;;;;;11.13;9.98;;;10.70;99.90;;;;;;5024090;28;20086;-70
2022/06/01 05:04:29;;;;;;;10.68;9.40;;;10.80;99.90;;;;;;4970337;28;20753;-73
2022/06/01 05:06:56;;;;;;;11.93;10.48;;;10.80;99.90;;;;;;5002819;28;20068;-65
2022/06/01 05:09:22;;;;;;;16.50;10.18;;;10.80;99.90;;;;;;5003334;28;20078;-65
2022/06/01 05:11:47;;;;;;;21.23;10.50;;;10.80;99.90;;;;;;5018735;28;20074;-70
2022/06/01 05:14:13;;;;;;;12.52;10.07;;;10.80;99.90;;;;;;4986829;28;20050;-65
2022/06/01 05:16:39;;;;;;;11.00;9.85;;;10.90;99.90;;;;;;4986164;28;20050;-72
2022/06/01 05:19:04;;;;;;;10.93;9.27;;;10.90;99.90;;;;;;5019404;28;20484;-67
2022/06/01 05:21:30;;;;;;;11.52;9.13;;;10.90;99.90;;;;;;4986314;28;20053;-66
2022/06/01 05:23:56;;;;;;;13.75;10.00;;;10.90;99.90;;;;;;5019278;28;20089;-70
2022/06/01 05:26:22;;;;;;;11.93;9.60;;;10.90;99.90;;;;;;4970499;28;20070;-66
2022/06/01 05:28:48;;;;;;;12.65;10.13;;;10.90;99.90;;;;;;4986391;28;20050;-73
2022/06/01 05:31:14;;;;;;;13.43;9.85;;;10.90;99.90;;;;;;5018958;28;20047;-65
2022/06/01 05:33:43;;;;;;;11.82;9.80;;;10.90;99.90;;;;;;5018364;28;20137;-69
2022/06/01 05:36:10;;;;;;;14.38;10.30;;;11.00;99.90;;;;;;4986464;28;20587;-64
2022/06/01 05:38:36;;;;;;;15.48;10.55;;;11.00;99.90;;;;;;4986237;28;20046;-69
2022/06/01 05:41:02;;;;;;;13.40;10.90;;;11.00;99.90;;;;;;4970170;28;20524;-64
2022/06/01 05:43:28;;;;;;;11.88;10.70;;;11.00;99.90;;;;;;4987185;28;20038;-65
2022/06/01 05:45:54;;;;;;;14.93;10.48;;;11.00;99.90;;;;;;4972993;28;20535;-70
2022/06/01 05:48:22;;;;;;;12.38;10.57;;;11.10;99.90;;;;;;4986595;28;20047;-66
2022/06/01 05:50:47;;;;;;;13.15;10.50;;;11.10;99.90;;;;;;4969630;28;20046;-69
2022/06/01 05:53:13;;;;;;;14.30;10.48;;;11.10;99.90;;;;;;4987421;28;20860;-68
2022/06/01 05:55:39;;;;;;;11.77;9.75;;;11.10;99.90;;;;;;4986090;28;20049;-67
2022/06/01 05:58:21;;;;;;;14.60;10.80;;;11.10;99.90;;;;;;4971765;28;20042;-69
2022/06/01 06:00:48;;;;;;;10.68;9.63;;;11.10;99.90;;;;;;5015139;28;20137;-62
2022/06/01 06:03:15;;;;;;;14.68;10.77;;;11.20;99.90;;;;;;4985943;28;20041;-67
2022/06/01 06:08:26;;;;;;;13.40;10.63;;;11.30;99.90;;;;;;4987637;28;20046;-71
2022/06/01 06:10:52;;;;;;;14.60;10.55;;;11.40;99.90;;;;;;4985142;28;20075;-73
2022/06/01 06:13:18;;;;;;;11.88;10.68;;;11.50;99.90;;;;;;4985445;28;20046;-67
2022/06/01 06:15:43;;;;;;;18.88;11.18;;;11.60;99.90;;;;;;4987843;28;20561;-69
2022/06/01 06:18:13;;;;;;;13.07;10.30;;;11.70;99.90;;;;;;4968871;28;20085;-63
2022/06/01 06:20:41;;;;;;;11.30;10.07;;;11.80;99.90;;;;;;5017801;28;20085;-62
2022/06/01 06:23:07;;;;;;;11.13;10.00;;;12.00;99.90;;;;;;4985799;28;20046;-62
2022/06/01 06:25:33;;;;;;;13.00;10.25;;;12.10;99.90;;;;;;5017514;28;20048;-64
2022/06/01 06:27:58;;;;;;;12.73;10.00;;;12.30;99.90;;;;;;5018423;28;20501;-65
2022/06/01 06:30:24;;;;;;;14.15;10.68;;;12.40;99.90;;;;;;5017670;28;20057;-69
2022/06/01 06:32:50;;;;;;;19.35;10.68;;;12.50;99.90;;;;;;4969840;28;20397;-63
2022/06/01 06:35:16;;;;;;;11.65;9.68;;;12.70;99.90;;;;;;4987672;28;20102;-69
2022/06/01 06:37:41;;;;;;;12.27;9.60;;;12.80;99.90;;;;;;5000272;28;20074;-64
2022/06/01 06:40:11;;;;;;;10.98;9.90;;;13.00;99.90;;;;;;4985931;28;20042;-69
2022/06/01 06:42:37;;;;;;;16.02;10.70;;;13.10;99.90;;;;;;4985212;28;20045;-69
2022/06/01 06:45:04;;;;;;;10.90;9.30;;;13.20;99.90;;;;;;4986401;28;20051;-66
2022/06/01 06:47:33;;;;;;;12.52;10.15;;;13.20;99.90;;;;;;5016173;28;20085;-64
2022/06/01 06:50:01;;;;;;;18.08;11.95;;;13.30;99.90;;;;;;4985523;28;20050;-72
2022/06/01 06:52:26;;;;;;;11.38;10.13;;;13.30;99.90;;;;;;5017714;28;20045;-64
2022/06/01 06:54:53;;;;;;;14.10;9.88;;;13.30;99.90;;;;;;5018172;28;20054;-64
2022/06/01 06:57:20;;;;;;;12.10;9.70;;;13.40;99.90;;;;;;5018557;28;20142;-61
2022/06/01 06:59:48;;;;;;;12.60;9.63;;;13.40;99.90;;;;;;4997091;28;20566;-65
2022/06/01 07:02:15;;;;;;;16.27;9.68;;;13.40;99.90;;;;;;4991121;28;20054;-66
2022/06/01 07:04:40;;;;;;;11.98;9.63;;;13.30;99.90;;;;;;4984861;28;20544;-61
2022/06/01 07:07:06;;;;;;;11.07;9.82;;;13.30;99.90;;;;;;5001069;28;20133;-72
2022/06/01 07:09:32;;;;;;;11.52;9.70;;;13.20;99.90;;;;;;4967521;28;20042;-71
2022/06/01 07:11:57;;;;;;;12.88;10.00;;;13.10;99.90;;;;;;4985575;28;20144;-68
2022/06/01 07:14:23;;;;;;;12.07;9.43;;;13.10;99.90;;;;;;5017759;28;20046;-65
2022/06/01 07:16:49;;;;;;;13.65;10.07;;;13.00;99.90;;;;;;5015111;28;20188;-62
2022/06/01 07:19:14;;;;;;;14.05;10.23;;;13.00;99.90;;;;;;4967114;28;20105;-68
2022/06/01 07:21:41;;;;;;;15.70;10.73;;;12.90;99.90;;;;;;5017042;28;20520;-66
2022/06/01 07:24:07;;;;;;;15.20;11.48;;;12.80;99.90;;;;;;5021507;28;20057;-63
2022/06/01 07:26:36;;;;;;;12.30;10.13;;;12.80;99.90;;;;;;5020832;28;20562;-70
2022/06/01 07:29:04;;;;;;;12.88;9.95;;;12.80;99.90;;;;;;5022544;28;20204;-68
2022/06/01 07:31:30;;;;;;;15.95;9.55;;;12.70;99.90;;;;;;5003231;28;20076;-63
2022/06/01 07:33:58;;;;;;;11.40;9.05;;;12.70;99.90;;;;;;4971160;28;20046;-69
2022/06/01 07:36:25;;;;;;;18.48;9.70;;;12.80;99.90;;;;;;4970475;28;20616;-71
2022/06/01 07:44:30;;;;;;;13.68;9.13;;;12.90;99.90;;;;;;5014750;28;20532;-61
2022/06/01 07:46:56;;;;;;;9.85;8.82;;;13.10;99.90;;;;;;4988673;28;20062;-71
2022/06/01 07:49:22;;;;;;;11.18;10.13;;;13.30;99.90;;;;;;5021474;28;20397;-64
2022/06/01 07:51:48;;;;;;;10.60;9.48;;;13.60;99.90;;;;;;4986023;28;20043;-69
2022/06/01 07:54:14;;;;;;;11.90;9.38;;;13.80;99.90;;;;;;4988518;28;20133;-69
2022/06/01 07:56:40;;;;;;;11.00;9.38;;;14.00;99.90;;;;;;4988281;28;20497;-72
2022/06/01 07:59:06;;;;;;;10.43;8.88;;;14.10;99.90;;;;;;5021280;28;20056;-66
2022/06/01 08:01:33;;;;;;;12.38;10.95;;;14.30;99.90;;;;;;4990022;28;20042;-70
2022/06/01 08:04:02;;;;;;;12.70;9.38;;;14.50;99.90;;;;;;5021192;28;20374;-65
2022/06/01 08:06:29;;;;;;;15.57;9.95;;;14.60;99.90;;;;;;4971627;28;20050;-66
2022/06/01 08:08:55;;;;;;;11.75;9.95;;;14.60;99.90;;;;;;5002882;28;20058;-62
2022/06/01 08:13:06;;;;;;;12.85;9.95;;;14.60;99.90;;;;;;4988237;28;20043;-67
2022/06/01 08:14:13;;;;;;;13.50;10.27;;;14.60;99.90;;;;;;4987601;28;20133;-64
2022/06/01 08:16:42;;;;;;;9.60;8.70;;;14.60;99.90;;;;;;5010590;28;20057;-64
2022/06/01 08:19:09;;;;;;;13.20;9.87;;;14.40;99.90;;;;;;5020632;28;20054;-69
2022/06/01 08:21:37;;;;;;;13.65;9.10;;;14.20;99.90;;;;;;4971576;28;20038;-66
2022/06/01 08:24:05;;;;;;;12.57;9.50;;;14.30;99.90;;;;;;5019940;28;20126;-65
2022/06/01 08:26:31;;;;;;;11.38;8.75;;;14.30;99.90;;;;;;4986583;28;20145;-66
2022/06/01 08:28:57;;;;;;;10.88;8.68;;;14.30;99.90;;;;;;5020775;28;20114;-62
2022/06/01 08:31:27;;;;;;;6.45;5.63;;;14.40;99.90;;;;;;4970815;28;20129;-63
2022/06/01 08:33:53;;;;;;;;;;;14.40;99.90;;;;;;5003580;28;20153;-67
2022/06/01 08:36:19;;;;;;;7.80;4.45;;;14.20;99.90;;;;;;4986263;28;19921;-62
2022/06/01 08:38:45;;;;;;;5.03;4.47;;;14.00;99.90;;;;;;5003721;28;20100;-68
2022/06/01 08:41:13;;;;;;;4.30;4.00;;;13.80;99.90;;;;;;5019048;28;20050;-69
2022/06/01 08:43:46;;;;;;;5.00;4.60;;;13.80;99.90;;;;;;4985747;28;20050;-64
2022/06/01 08:46:14;;;;;;;6.57;4.07;;;13.70;99.90;;;;;;5014842;28;20058;-73
2022/06/01 08:48:45;;;;;;;4.63;4.22;;;13.60;99.90;;;;;;5019119;28;20046;-63
2022/06/01 08:51:11;;;;;;;4.03;3.65;;;13.50;99.90;;;;;;5004357;28;20046;-68
2022/06/01 08:53:38;;;;;;;3.88;3.38;;;13.50;99.90;;;;;;4988853;28;20050;-62
2022/06/01 08:56:13;;;;;;;3.13;1.92;;;13.50;99.90;;;;;;5020146;28;20740;-69
2022/06/01 08:59:03;;;;;;;3.92;1.55;;;13.40;99.90;;;;;;5020432;28;20046;-70
2022/06/01 09:01:52;;;;;;;1.55;1.42;;;13.30;99.90;;;;;;5008150;28;20488;-68
2022/06/01 09:04:53;;;;;;;1.50;1.40;;;13.20;99.40;;;;;;5019606;28;20053;-62
2022/06/01 09:07:31;;;;;;;3.53;2.30;;;13.20;99.90;;;;;;4986927;28;20053;-68
2022/06/01 09:10:12;;;;;;;5.43;2.33;;;13.20;99.90;;;;;;4980354;28;20599;-65
2022/06/01 09:12:38;;;;;;;3.63;2.70;;;13.30;99.90;;;;;;5020152;28;20494;-69
2022/06/01 09:15:26;;;;;;;4.60;2.38;;;13.50;99.90;;;;;;4977757;28;20137;-65
2022/06/01 09:17:54;;;;;;;2.40;2.08;;;13.90;99.60;;;;;;4986502;28;20038;-68
2022/06/01 09:23:14;;;;;;;2.90;2.53;;;14.40;95.10;;;;;;5004710;28;20075;-64
2022/06/01 09:25:52;;;;;;;3.03;2.67;;;14.50;96.10;;;;;;5019660;28;20057;-66
2022/06/01 09:28:25;;;;;;;5.20;2.00;;;14.50;94.20;;;;;;4986089;28;20061;-64
2022/06/01 09:31:27;;;;;;;7.70;2.30;;;14.60;94.40;;;;;;5019679;28;20411;-62
2022/06/01 09:34:17;;;;;;;2.10;2.00;;;14.60;95.20;;;;;;4967705;28;20373;-63
2022/06/01 09:37:00;;;;;;;1.85;1.75;;;14.70;95.30;;;;;;5001521;28;20046;-62
2022/06/01 09:39:26;;;;;;;2.20;2.10;;;14.70;92.70;;;;;;5018422;28;20073;-60
2022/06/01 09:52:40;;;;;;;4.47;2.50;;;16.00;88.30;;;;;;5088293;22;20125;-62
2022/06/01 09:55:12;;;;;;;10.35;2.58;;;16.30;87.80;;;;;;5068607;28;20051;-72
2022/06/01 09:57:39;;;;;;;6.30;2.60;;;16.50;84.60;;;;;;5053587;28;20032;-63
2022/06/01 10:06:13;;;;;;;3.40;2.40;;;15.50;77.40;;;;;;5068780;28;20048;-65
2022/06/01 10:08:43;;;;;;;2.30;2.20;;;15.30;91.00;;;;;;5069006;28;20044;-70
2022/06/01 10:11:40;;;;;;;4.75;1.90;;;15.40;91.30;;;;;;5065852;28;20467;-65
2022/06/01 10:14:06;;;;;;;2.25;2.10;;;14.90;94.10;;;;;;5066476;28;20047;-69
2022/06/01 10:16:47;;;;;;;4.05;1.92;;;14.60;99.50;;;;;;5066988;28;20056;-62
2022/06/01 10:19:18;;;;;;;3.28;1.95;;;14.10;97.60;;;;;;5051168;28;20129;-69
2022/06/01 10:21:46;;;;;;;3.63;2.10;;;13.60;99.80;;;;;;5066597;28;20066;-73
2022/06/01 10:24:20;;;;;;;3.42;2.10;;;13.50;99.90;;;;;;5065616;28;20056;-75
2022/06/01 10:26:59;;;;;;;2.85;2.40;;;13.30;99.90;;;;;;5051743;28;20040;-68
2022/06/01 10:29:50;;;;;;;2.63;2.42;;;13.20;99.90;;;;;;5060376;28;20048;-69
2022/06/01 10:32:51;;;;;;;2.80;2.60;;;13.10;99.90;;;;;;5068175;28;20040;-79
2022/06/01 10:35:36;;;;;;;4.38;2.58;;;13.10;99.90;;;;;;5047515;28;20048;-69
2022/06/01 10:38:17;;;;;;;3.20;2.90;;;13.10;99.90;;;;;;5069202;28;20123;-70
2022/06/01 10:41:06;;;;;;;3.15;2.85;;;13.10;99.90;;;;;;5051741;28;20047;-71
2022/06/01 10:43:39;;;;;;;3.13;2.90;;;13.20;99.90;;;;;;5069828;28;20036;-81
2022/06/01 10:46:23;;;;;;;3.13;2.92;;;13.20;99.90;;;;;;5068501;28;20063;-74
2022/06/01 10:49:16;;;;;;;2.75;2.55;;;13.30;99.90;;;;;;5065967;28;20062;-73
2022/06/01 10:51:43;;;;;;;2.90;2.80;;;13.30;99.90;;;;;;5060306;28;20056;-71
2022/06/01 10:54:26;;;;;;;5.82;2.63;;;13.40;99.90;;;;;;5048641;28;20048;-76
2022/06/01 10:56:52;;;;;;;3.00;2.80;;;13.40;99.90;;;;;;5067350;28;20052;-78
2022/06/01 10:59:18;;;;;;;2.50;2.40;;;13.40;99.90;;;;;;5069696;28;20131;-73
2022/06/01 11:02:12;;;;;;;2.92;2.58;;;13.40;99.90;;;;;;5066463;28;20048;-74
2022/06/01 11:04:54;;;;;;;2.58;2.47;;;13.40;99.90;;;;;;5067007;28;20056;-75
2022/06/01 11:07:40;;;;;;;2.78;2.58;;;13.40;99.90;;;;;;5069055;28;20040;-75
2022/06/01 11:10:40;;;;;;;2.60;2.40;;;13.40;99.90;;;;;;5071027;28;20040;-73
2022/06/01 11:13:25;;;;;;;3.00;2.75;;;13.40;99.90;;;;;;5069745;28;20107;-69
2022/06/01 11:16:04;;;;;;;2.63;2.42;;;13.30;99.90;;;;;;5053258;28;20391;-73
2022/06/01 11:18:39;;;;;;;3.85;3.53;;;13.20;99.90;;;;;;5054767;28;20116;-73
2022/06/01 11:21:41;;;;;;;2.65;2.55;;;13.00;99.90;;;;;;5068630;28;20849;-72
2022/06/01 11:24:22;;;;;;;1.98;1.88;;;12.80;99.90;;;;;;5070883;28;20154;-69
2022/06/01 11:27:17;;;;;;;2.13;1.92;;;12.70;99.90;;;;;;5039612;28;20080;-70
2022/06/01 11:30:07;;;;;;;1.70;1.10;;;12.60;99.90;;;;;;5048299;28;20048;-77
2022/06/01 11:32:52;;;;;;;3.63;1.70;;;12.50;99.90;;;;;;5066455;28;20453;-76
2022/06/01 11:35:21;;;;;;;1.63;1.20;;;12.50;99.90;;;;;;5068777;28;20037;-70
2022/06/01 11:38:00;;;;;;;1.70;1.17;;;12.60;99.90;;;;;;5087309;28;20405;-71
2022/06/01 11:40:54;;;;;;;2.33;1.70;;;12.60;99.90;;;;;;5070705;28;20047;-73
2022/06/01 11:43:22;;;;;;;2.72;2.53;;;12.70;99.90;;;;;;5071179;28;20059;-76
2022/06/01 11:45:53;;;;;;;5.85;2.40;;;12.70;99.90;;;;;;5063260;28;20450;-73
2022/06/01 11:48:38;;;;;;;6.43;2.33;;;12.80;99.90;;;;;;5071496;28;20044;-78
2022/06/01 11:51:45;;;;;;;3.53;2.03;;;12.80;99.90;;;;;;5051870;28;20063;-81
2022/06/01 11:54:16;;;;;;;11.20;2.92;;;12.80;99.90;;;;;;5024667;28;20086;-69
2022/06/01 11:57:04;;;;;;;5.10;2.15;;;12.70;99.90;;;;;;5069056;28;20048;-74
2022/06/01 11:59:45;;;;;;;5.65;2.53;;;12.60;99.90;;;;;;5067617;28;20088;-69
2022/06/01 12:02:41;;;;;;;5.80;2.55;;;12.60;99.90;;;;;;5070936;28;20048;-71
2022/06/01 12:05:23;;;;;;;3.83;2.40;;;12.70;99.90;;;;;;5055392;28;20040;-68
2022/06/01 12:07:57;;;;;;;5.28;2.38;;;12.80;99.90;;;;;;5069907;28;20067;-68
2022/06/01 12:10:51;;;;;;;2.92;2.22;;;12.80;99.90;;;;;;5052875;28;20909;-74
2022/06/01 12:13:24;;;;;;;5.18;2.45;;;12.90;99.90;;;;;;5050212;28;20048;-70
2022/06/01 12:16:24;;;;;;;4.50;2.33;;;12.90;99.90;;;;;;5053208;28;20074;-70
2022/06/01 12:18:58;;;;;;;4.35;1.55;;;12.90;99.90;;;;;;5067768;28;20039;-70
2022/06/01 12:21:44;;;;;;;1.77;1.10;;;13.10;99.90;;;;;;5068767;28;20044;-72
2022/06/01 12:30:12;;;;;;;9.57;1.20;;;13.60;99.90;;;;;;5064180;28;20126;-73
2022/06/01 12:32:58;;;;;;;0.82;0.70;;;13.90;99.90;;;;;;5052815;28;20044;-77
2022/06/01 12:35:26;;;;;;;1.65;0.90;;;14.10;99.90;;;;;;5064402;28;20055;-72
2022/06/01 12:37:59;;;;;;;1.60;0.82;;;14.20;99.90;;;;;;5047919;28;20036;-77
2022/06/01 12:40:27;;;;;;;1.13;0.80;;;14.20;99.90;;;;;;5070831;28;20036;-65
2022/06/01 12:42:55;;;;;;;0.95;0.70;;;14.10;99.90;;;;;;5053090;28;20048;-71
2022/06/01 12:45:38;;;;;;;0.73;0.70;;;14.00;99.90;;;;;;5062431;28;20048;-69
2022/06/01 12:48:12;;;;;;;1.73;0.90;;;13.90;99.90;;;;;;5088119;28;20056;-65
2022/06/01 12:50:51;;;;;;;6.38;1.35;;;13.80;99.90;;;;;;5070340;28;20050;-63
2022/06/01 12:53:22;;;;;;;1.98;0.93;;;13.70;99.90;;;;;;5071202;28;20137;-63
2022/06/01 12:56:02;;;;;;;1.45;0.80;;;13.60;99.90;;;;;;5069752;28;20079;-73
2022/06/01 12:58:27;;;;;;;;;;;13.60;99.90;;;;;;5054431;28;20079;-74
2022/06/01 13:00:56;;;;;;;1.63;1.00;;;13.50;99.90;;;;;;5069583;28;19943;-66
2022/06/01 13:03:24;;;;;;;1.73;0.60;;;13.50;99.90;;;;;;5089560;28;20039;-65
2022/06/01 13:05:53;;;;;;;2.80;0.90;;;13.30;99.90;;;;;;5070388;28;20148;-64
2022/06/01 13:08:26;;;;;;;1.55;0.70;;;13.10;99.90;;;;;;5088793;28;20368;-63
2022/06/01 13:10:52;;;;;;;2.05;1.00;;;13.00;99.90;;;;;;5083036;28;20467;-64
2022/06/01 13:13:25;;;;;;;2.88;0.95;;;12.90;99.90;;;;;;5053113;28;20093;-62
2022/06/01 13:15:56;;;;;;;2.58;1.05;;;12.80;99.90;;;;;;5070881;28;20040;-63
2022/06/01 13:18:31;;;;;;;1.05;0.73;;;12.80;99.90;;;;;;5070045;28;20500;-63
2022/06/01 13:21:43;;;;;;;0.65;0.50;;;12.80;99.90;;;;;;5065131;28;20056;-65
2022/06/01 13:24:10;;;;;;;1.50;0.77;;;12.80;99.90;;;;;;5051055;28;20529;-68
2022/06/01 13:26:43;;;;;;;0.40;0.40;;;12.90;99.90;;;;;;5069609;28;20100;-74
2022/06/01 13:29:27;;;;;;;1.33;0.60;;;13.00;99.90;;;;;;5054079;28;20056;-66
2022/06/01 13:31:57;;;;;;;0.52;0.50;;;13.20;99.90;;;;;;5069396;28;20066;-64
2022/06/01 13:34:38;;;;;;;1.08;0.90;;;13.60;99.90;;;;;;5053454;28;20044;-67
2022/06/01 13:37:28;;;;;;;0.75;0.40;;;14.10;99.90;;;;;;5069936;28;20075;-72
2022/06/01 13:39:58;;;;;;;0.68;0.43;;;14.30;99.90;;;;;;5069416;28;20109;-66
2022/06/01 13:42:37;;;;;;;0.82;0.50;;;14.60;99.90;;;;;;5057404;28;20527;-66